createdAt,value
2024-03-27T00:00:17.802Z,437.00
2024-03-27T00:01:17.858Z,439.00
2024-03-27T00:02:17.938Z,441.00
2024-03-27T00:03:18.019Z,441.00
2024-03-27T00:04:18.115Z,440.00
2024-03-27T00:05:18.151Z,442.00
2024-03-27T00:06:18.226Z,442.00
2024-03-27T00:07:18.291Z,440.00
2024-03-27T00:08:18.375Z,442.00
2024-03-27T00:09:18.445Z,443.00
2024-03-27T00:10:18.516Z,444.00
2024-03-27T00:11:18.584Z,445.00
2024-03-27T00:12:18.676Z,445.00
2024-03-27T00:13:18.739Z,445.00
2024-03-27T00:14:18.963Z,444.00
2024-03-27T00:15:18.915Z,444.00
2024-03-27T00:16:18.964Z,440.00
2024-03-27T00:17:19.039Z,439.00
2024-03-27T00:18:19.110Z,439.00
2024-03-27T00:19:19.170Z,438.00
2024-03-27T00:20:19.262Z,439.00
2024-03-27T00:21:19.335Z,437.00
2024-03-27T00:22:19.410Z,441.00
2024-03-27T00:23:19.486Z,441.00
2024-03-27T00:24:19.566Z,442.00
2024-03-27T00:25:19.663Z,442.00
2024-03-27T00:26:19.689Z,443.00
2024-03-27T00:27:19.759Z,444.00
2024-03-27T00:28:19.840Z,444.00
2024-03-27T00:29:19.979Z,445.00
2024-03-27T00:30:20.537Z,446.00
2024-03-27T00:31:20.061Z,446.00
2024-03-27T00:32:20.142Z,442.00
2024-03-27T00:33:20.229Z,442.00
2024-03-27T00:34:20.312Z,438.00
2024-03-27T00:35:20.378Z,438.00
2024-03-27T00:36:20.495Z,441.00
2024-03-27T00:37:20.541Z,440.00
2024-03-27T00:38:20.604Z,440.00
2024-03-27T00:39:20.687Z,441.00
2024-03-27T00:40:20.757Z,442.00
2024-03-27T00:41:20.849Z,441.00
2024-03-27T00:42:20.942Z,441.00
2024-03-27T00:43:20.988Z,441.00
2024-03-27T00:44:21.081Z,443.00
2024-03-27T00:45:21.138Z,444.00
2024-03-27T00:46:21.212Z,446.00
2024-03-27T00:47:21.279Z,447.00
2024-03-27T00:48:21.370Z,446.00
2024-03-27T00:49:21.430Z,444.00
2024-03-27T00:50:21.510Z,443.00
2024-03-27T00:51:21.583Z,445.00
2024-03-27T00:52:21.659Z,447.00
2024-03-27T00:53:21.745Z,446.00
2024-03-27T00:54:21.834Z,447.00
2024-03-27T00:55:21.904Z,445.00
2024-03-27T00:56:27.056Z,445.00
2024-03-27T00:57:21.991Z,446.00
2024-03-27T00:58:21.987Z,445.00
2024-03-27T00:59:21.980Z,443.00
2024-03-27T01:00:21.983Z,445.00
2024-03-27T01:01:21.995Z,447.00
2024-03-27T01:02:22.022Z,445.00
2024-03-27T01:03:21.999Z,445.00
2024-03-27T01:04:22.008Z,446.00
2024-03-27T01:05:22.011Z,445.00
2024-03-27T01:06:22.022Z,447.00
2024-03-27T01:07:22.010Z,445.00
2024-03-27T01:08:22.098Z,443.00
2024-03-27T01:09:22.184Z,444.00
2024-03-27T01:10:22.246Z,443.00
2024-03-27T01:11:22.326Z,445.00
2024-03-27T01:12:22.402Z,447.00
2024-03-27T01:13:22.484Z,445.00
2024-03-27T01:14:22.555Z,444.00
2024-03-27T01:15:22.622Z,448.00
2024-03-27T01:16:22.705Z,448.00
2024-03-27T01:17:22.806Z,446.00
2024-03-27T01:18:22.876Z,445.00
2024-03-27T01:19:22.957Z,446.00
2024-03-27T01:20:23.032Z,447.00
2024-03-27T01:21:23.107Z,447.00
2024-03-27T01:22:23.186Z,445.00
2024-03-27T01:23:23.264Z,443.00
2024-03-27T01:24:23.361Z,444.00
2024-03-27T01:25:23.435Z,443.00
2024-03-27T01:26:23.520Z,442.00
2024-03-27T01:27:23.589Z,444.00
2024-03-27T01:28:23.675Z,446.00
2024-03-27T01:29:23.748Z,448.00
2024-03-27T01:30:23.820Z,447.00
2024-03-27T01:31:23.893Z,448.00
2024-03-27T01:32:23.990Z,449.00
2024-03-27T01:33:24.052Z,447.00
2024-03-27T01:34:24.152Z,446.00
2024-03-27T01:35:24.204Z,444.00
2024-03-27T01:36:24.280Z,443.00
2024-03-27T01:37:24.367Z,443.00
2024-03-27T01:38:24.449Z,442.00
2024-03-27T01:39:24.531Z,445.00
2024-03-27T01:40:24.596Z,448.00
2024-03-27T01:41:24.676Z,449.00
2024-03-27T01:42:24.775Z,450.00
2024-03-27T01:43:24.882Z,452.00
2024-03-27T01:44:24.939Z,452.00
2024-03-27T01:45:25.004Z,449.00
2024-03-27T01:46:25.080Z,450.00
2024-03-27T01:47:25.156Z,450.00
2024-03-27T01:48:25.239Z,450.00
2024-03-27T01:49:25.330Z,450.00
2024-03-27T01:50:25.412Z,449.00
2024-03-27T01:51:25.490Z,448.00
2024-03-27T01:52:25.579Z,448.00
2024-03-27T01:53:25.675Z,450.00
2024-03-27T01:54:25.726Z,448.00
2024-03-27T01:55:25.887Z,449.00
2024-03-27T01:56:25.888Z,447.00
2024-03-27T01:57:25.964Z,446.00
2024-03-27T01:58:26.044Z,443.00
2024-03-27T01:59:26.130Z,441.00
2024-03-27T02:00:26.324Z,443.00
2024-03-27T02:01:26.263Z,443.00
2024-03-27T02:02:26.379Z,441.00
2024-03-27T02:03:26.434Z,441.00
2024-03-27T02:04:26.502Z,441.00
2024-03-27T02:05:26.574Z,441.00
2024-03-27T02:06:26.700Z,442.00
2024-03-27T02:07:26.756Z,445.00
2024-03-27T02:08:26.832Z,445.00
2024-03-27T02:09:26.925Z,446.00
2024-03-27T02:10:26.981Z,443.00
2024-03-27T02:11:27.084Z,442.00
2024-03-27T02:12:27.164Z,441.00
2024-03-27T02:13:27.238Z,443.00
2024-03-27T02:14:27.309Z,443.00
2024-03-27T02:15:27.407Z,444.00
2024-03-27T02:16:27.461Z,443.00
2024-03-27T02:17:27.566Z,441.00
2024-03-27T02:18:27.605Z,443.00
2024-03-27T02:19:27.721Z,443.00
2024-03-27T02:20:27.783Z,444.00
2024-03-27T02:21:27.886Z,442.00
2024-03-27T02:22:28.011Z,444.00
2024-03-27T02:23:28.010Z,445.00
2024-03-27T02:24:28.090Z,444.00
2024-03-27T02:25:28.170Z,443.00
2024-03-27T02:26:28.247Z,444.00
2024-03-27T02:27:28.382Z,441.00
2024-03-27T02:28:28.400Z,441.00
2024-03-27T02:29:28.476Z,440.00
2024-03-27T02:30:28.554Z,442.00
2024-03-27T02:31:28.648Z,441.00
2024-03-27T02:32:28.732Z,440.00
2024-03-27T02:33:28.854Z,440.00
2024-03-27T02:34:28.870Z,439.00
2024-03-27T02:35:28.940Z,441.00
2024-03-27T02:36:29.059Z,441.00
2024-03-27T02:37:29.101Z,438.00
2024-03-27T02:38:29.206Z,439.00
2024-03-27T02:39:29.305Z,439.00
2024-03-27T02:40:29.359Z,438.00
2024-03-27T02:41:29.424Z,437.00
2024-03-27T02:42:29.526Z,439.00
2024-03-27T02:43:29.604Z,437.00
2024-03-27T02:44:29.690Z,438.00
2024-03-27T02:45:29.779Z,439.00
2024-03-27T02:46:29.845Z,438.00
2024-03-27T02:47:29.953Z,440.00
2024-03-27T02:48:30.033Z,437.00
2024-03-27T02:49:30.135Z,436.00
2024-03-27T02:50:30.171Z,437.00
2024-03-27T02:51:30.294Z,437.00
2024-03-27T02:52:30.345Z,438.00
2024-03-27T02:53:30.425Z,438.00
2024-03-27T02:54:30.509Z,436.00
2024-03-27T02:55:30.595Z,437.00
2024-03-27T02:56:30.686Z,435.00
2024-03-27T02:57:30.762Z,436.00
2024-03-27T02:58:30.851Z,437.00
2024-03-27T02:59:30.940Z,435.00
2024-03-27T03:00:31.085Z,436.00
2024-03-27T03:01:31.089Z,440.00
2024-03-27T03:02:31.190Z,439.00
2024-03-27T03:03:31.293Z,436.00
2024-03-27T03:04:31.355Z,432.00
2024-03-27T03:05:31.436Z,431.00
2024-03-27T03:06:31.532Z,429.00
2024-03-27T03:07:31.647Z,429.00
2024-03-27T03:08:31.719Z,429.00
2024-03-27T03:09:31.829Z,429.00
2024-03-27T03:10:31.883Z,431.00
2024-03-27T03:11:31.948Z,432.00
2024-03-27T03:12:32.040Z,434.00
2024-03-27T03:13:32.130Z,435.00
2024-03-27T03:14:32.211Z,434.00
2024-03-27T03:15:32.312Z,433.00
2024-03-27T03:16:32.386Z,434.00
2024-03-27T03:17:32.489Z,435.00
2024-03-27T03:18:32.570Z,433.00
2024-03-27T03:19:32.642Z,435.00
2024-03-27T03:20:32.720Z,436.00
2024-03-27T03:21:32.797Z,437.00
2024-03-27T03:22:32.870Z,437.00
2024-03-27T03:23:32.947Z,438.00
2024-03-27T03:24:33.042Z,437.00
2024-03-27T03:25:33.120Z,437.00
2024-03-27T03:26:33.202Z,435.00
2024-03-27T03:27:33.322Z,436.00
2024-03-27T03:28:33.387Z,435.00
2024-03-27T03:29:33.459Z,435.00
2024-03-27T03:30:33.574Z,435.00
2024-03-27T03:31:33.618Z,435.00
2024-03-27T03:32:33.702Z,435.00
2024-03-27T03:33:33.821Z,433.00
2024-03-27T03:34:33.882Z,434.00
2024-03-27T03:35:33.959Z,433.00
2024-03-27T03:36:34.071Z,434.00
2024-03-27T03:37:34.134Z,433.00
2024-03-27T03:38:34.210Z,432.00
2024-03-27T03:39:34.351Z,431.00
2024-03-27T03:40:34.385Z,434.00
2024-03-27T03:41:34.472Z,434.00
2024-03-27T03:42:34.594Z,433.00
2024-03-27T03:43:34.646Z,434.00
2024-03-27T03:44:34.729Z,435.00
2024-03-27T03:45:34.825Z,434.00
2024-03-27T03:46:34.902Z,434.00
2024-03-27T03:47:34.991Z,433.00
2024-03-27T03:48:35.084Z,434.00
2024-03-27T03:49:35.163Z,437.00
2024-03-27T03:50:35.236Z,436.00
2024-03-27T03:51:35.337Z,435.00
2024-03-27T03:52:35.388Z,435.00
2024-03-27T03:53:35.490Z,436.00
2024-03-27T03:54:35.614Z,435.00
2024-03-27T03:55:35.648Z,435.00
2024-03-27T03:56:35.733Z,433.00
2024-03-27T03:57:35.867Z,433.00
2024-03-27T03:58:35.918Z,432.00
2024-03-27T03:59:35.976Z,432.00
2024-03-27T04:00:36.059Z,433.00
2024-03-27T04:01:36.141Z,435.00
2024-03-27T04:02:36.232Z,438.00
2024-03-27T04:03:36.325Z,439.00
2024-03-27T04:04:36.392Z,441.00
2024-03-27T04:05:36.493Z,440.00
2024-03-27T04:06:36.602Z,440.00
2024-03-27T04:07:36.645Z,440.00
2024-03-27T04:08:36.719Z,438.00
2024-03-27T04:09:36.817Z,436.00
2024-03-27T04:10:36.896Z,438.00
2024-03-27T04:11:36.976Z,435.00
2024-03-27T04:12:39.326Z,434.00
2024-03-27T04:13:37.051Z,433.00
2024-03-27T04:14:37.064Z,434.00
2024-03-27T04:15:37.082Z,436.00
2024-03-27T04:16:37.054Z,435.00
2024-03-27T04:17:37.053Z,433.00
2024-03-27T04:18:37.080Z,432.00
2024-03-27T04:19:37.073Z,434.00
2024-03-27T04:20:37.107Z,429.00
2024-03-27T04:21:37.089Z,430.00
2024-03-27T04:22:37.051Z,431.00
2024-03-27T04:23:37.053Z,435.00
2024-03-27T04:24:37.081Z,437.00
2024-03-27T04:25:49.771Z,439.00
2024-03-27T04:26:38.063Z,440.00
2024-03-27T04:27:37.096Z,440.00
2024-03-27T04:28:37.058Z,441.00
2024-03-27T04:29:37.066Z,442.00
2024-03-27T04:30:37.084Z,441.00
2024-03-27T04:31:37.122Z,440.00
2024-03-27T04:32:37.124Z,438.00
2024-03-27T04:33:37.113Z,438.00
2024-03-27T04:34:37.091Z,439.00
2024-03-27T04:35:37.098Z,438.00
2024-03-27T04:36:37.125Z,437.00
2024-03-27T04:37:37.211Z,437.00
2024-03-27T04:38:37.281Z,437.00
2024-03-27T04:39:37.390Z,441.00
2024-03-27T04:40:44.641Z,435.00
2024-03-27T04:41:44.646Z,439.00
2024-03-27T04:42:44.628Z,441.00
2024-03-27T04:43:44.628Z,443.00
2024-03-27T04:44:44.632Z,447.00
2024-03-27T04:45:44.646Z,446.00
2024-03-27T04:46:44.639Z,446.00
2024-03-27T04:47:44.645Z,446.00
2024-03-27T04:48:44.639Z,447.00
2024-03-27T04:49:44.641Z,449.00
2024-03-27T04:50:44.634Z,451.00
2024-03-27T04:51:44.644Z,452.00
2024-03-27T04:52:44.645Z,452.00
2024-03-27T04:53:44.656Z,451.00
2024-03-27T04:54:49.713Z,451.00
2024-03-27T04:55:44.663Z,451.00
2024-03-27T04:56:44.649Z,449.00
2024-03-27T04:57:44.665Z,448.00
2024-03-27T04:58:44.686Z,447.00
2024-03-27T04:59:44.694Z,446.00
2024-03-27T05:00:44.697Z,447.00
2024-03-27T05:01:44.704Z,446.00
2024-03-27T05:02:44.705Z,446.00
2024-03-27T05:03:44.696Z,448.00
2024-03-27T05:04:44.792Z,447.00
2024-03-27T05:05:44.892Z,446.00
2024-03-27T05:06:44.980Z,446.00
2024-03-27T05:07:45.089Z,443.00
2024-03-27T05:08:45.189Z,441.00
2024-03-27T05:09:45.304Z,440.00
2024-03-27T05:10:45.387Z,439.00
2024-03-27T05:11:45.491Z,440.00
2024-03-27T05:12:45.598Z,442.00
2024-03-27T05:13:45.698Z,441.00
2024-03-27T05:14:45.814Z,443.00
2024-03-27T05:15:45.893Z,443.00
2024-03-27T05:16:45.982Z,444.00
2024-03-27T05:17:46.088Z,444.00
2024-03-27T05:18:46.181Z,443.00
2024-03-27T05:19:46.291Z,439.00
2024-03-27T05:20:46.374Z,440.00
2024-03-27T05:21:46.477Z,440.00
2024-03-27T05:22:46.577Z,440.00
2024-03-27T05:23:46.664Z,438.00
2024-03-27T05:24:48.410Z,440.00
2024-03-27T05:25:46.810Z,440.00
2024-03-27T05:26:46.839Z,444.00
2024-03-27T05:27:46.889Z,445.00
2024-03-27T05:28:46.934Z,445.00
2024-03-27T05:29:46.990Z,444.00
2024-03-27T05:30:47.015Z,446.00
2024-03-27T05:31:47.054Z,445.00
2024-03-27T05:32:47.087Z,445.00
2024-03-27T05:33:47.164Z,446.00
2024-03-27T05:34:47.249Z,445.00
2024-03-27T05:35:47.351Z,446.00
2024-03-27T05:36:47.428Z,445.00
2024-03-27T05:37:47.543Z,445.00
2024-03-27T05:38:47.638Z,445.00
2024-03-27T05:39:47.728Z,444.00
2024-03-27T05:40:47.831Z,445.00
2024-03-27T05:41:47.901Z,451.00
2024-03-27T05:42:48.008Z,450.00
2024-03-27T05:43:48.100Z,449.00
2024-03-27T05:44:48.239Z,449.00
2024-03-27T05:45:48.295Z,448.00
2024-03-27T05:46:48.381Z,446.00
2024-03-27T05:47:48.466Z,446.00
2024-03-27T05:48:48.568Z,444.00
2024-03-27T05:49:48.668Z,440.00
2024-03-27T05:50:48.764Z,445.00
2024-03-27T05:51:48.852Z,447.00
2024-03-27T05:52:48.929Z,448.00
2024-03-27T05:53:49.037Z,445.00
2024-03-27T05:54:49.119Z,443.00
2024-03-27T05:55:49.222Z,443.00
2024-03-27T05:56:49.299Z,443.00
2024-03-27T05:57:49.383Z,443.00
2024-03-27T05:58:49.507Z,441.00
2024-03-27T05:59:49.597Z,441.00
2024-03-27T06:00:49.669Z,443.00
2024-03-27T06:01:49.757Z,444.00
2024-03-27T06:02:49.852Z,442.00
2024-03-27T06:03:49.974Z,443.00
2024-03-27T06:04:50.071Z,443.00
2024-03-27T06:05:50.138Z,443.00
2024-03-27T06:06:50.258Z,441.00
2024-03-27T06:07:50.302Z,440.00
2024-03-27T06:08:50.438Z,439.00
2024-03-27T06:09:50.506Z,436.00
2024-03-27T06:10:50.624Z,436.00
2024-03-27T06:11:50.655Z,435.00
2024-03-27T06:12:50.726Z,438.00
2024-03-27T06:13:50.821Z,440.00
2024-03-27T06:15:50.966Z,443.00
2024-03-27T06:16:50.973Z,442.00
2024-03-27T06:17:51.008Z,444.00
2024-03-27T06:18:51.096Z,444.00
2024-03-27T06:19:51.091Z,444.00
2024-03-27T06:20:51.129Z,442.00
2024-03-27T06:21:51.140Z,442.00
2024-03-27T06:22:51.178Z,442.00
2024-03-27T06:23:51.220Z,442.00
2024-03-27T06:24:51.252Z,445.00
2024-03-27T06:25:51.275Z,445.00
2024-03-27T06:26:52.311Z,444.00
2024-03-27T06:27:51.335Z,444.00
2024-03-27T06:28:51.363Z,442.00
2024-03-27T06:29:51.410Z,441.00
2024-03-27T06:30:51.437Z,437.00
2024-03-27T06:31:51.468Z,438.00
2024-03-27T06:32:51.506Z,440.00
2024-03-27T06:33:51.587Z,443.00
2024-03-27T06:34:51.565Z,445.00
2024-03-27T06:35:51.613Z,444.00
2024-03-27T06:36:51.706Z,446.00
2024-03-27T06:37:51.782Z,446.00
2024-03-27T06:38:51.876Z,447.00
2024-03-27T06:39:51.964Z,448.00
2024-03-27T06:40:52.074Z,447.00
2024-03-27T06:41:52.137Z,447.00
2024-03-27T06:42:52.290Z,448.00
2024-03-27T06:43:52.302Z,447.00
2024-03-27T06:44:52.597Z,445.00
2024-03-27T06:46:13.496Z,446.00
2024-03-27T06:46:52.486Z,447.00
2024-03-27T06:47:52.489Z,450.00
2024-03-27T06:48:52.484Z,451.00
2024-03-27T06:49:52.484Z,449.00
2024-03-27T06:50:52.490Z,448.00
2024-03-27T06:51:52.489Z,445.00
2024-03-27T06:52:52.493Z,444.00
2024-03-27T06:53:52.503Z,448.00
2024-03-27T06:54:52.503Z,447.00
2024-03-27T06:55:52.502Z,449.00
2024-03-27T06:56:52.494Z,449.00
2024-03-27T06:57:52.493Z,446.00
2024-03-27T06:58:52.496Z,446.00
2024-03-27T06:59:52.503Z,447.00
2024-03-27T07:00:52.493Z,449.00
2024-03-27T07:01:52.499Z,448.00
2024-03-27T07:02:52.497Z,448.00
2024-03-27T07:03:52.489Z,445.00
2024-03-27T07:04:52.506Z,448.00
2024-03-27T07:05:52.506Z,447.00
2024-03-27T07:06:52.512Z,448.00
2024-03-27T07:07:52.492Z,448.00
2024-03-27T07:08:52.496Z,449.00
2024-03-27T07:09:52.501Z,449.00
2024-03-27T07:10:52.506Z,449.00
2024-03-27T07:11:52.509Z,449.00
2024-03-27T07:12:52.512Z,448.00
2024-03-27T07:13:54.282Z,448.00
2024-03-27T07:14:52.500Z,449.00
2024-03-27T07:15:52.548Z,452.00
2024-03-27T07:16:52.550Z,449.00
2024-03-27T07:17:52.555Z,451.00
2024-03-27T07:18:52.553Z,450.00
2024-03-27T07:19:52.559Z,450.00
2024-03-27T07:20:52.567Z,449.00
2024-03-27T07:21:52.557Z,450.00
2024-03-27T07:22:53.301Z,449.00
2024-03-27T07:23:52.555Z,452.00
2024-03-27T07:24:52.618Z,451.00
2024-03-27T07:25:52.581Z,450.00
2024-03-27T07:26:52.558Z,447.00
2024-03-27T07:27:52.551Z,446.00
2024-03-27T07:28:52.551Z,444.00
2024-03-27T07:29:52.564Z,443.00
2024-03-27T07:31:02.453Z,442.00
2024-03-27T07:31:53.597Z,440.00
2024-03-27T07:32:52.563Z,442.00
2024-03-27T07:33:52.552Z,444.00
2024-03-27T07:34:52.561Z,446.00
2024-03-27T07:35:52.558Z,447.00
2024-03-27T07:36:52.562Z,449.00
2024-03-27T07:37:52.568Z,453.00
2024-03-27T07:38:52.602Z,452.00
2024-03-27T07:39:52.606Z,450.00
2024-03-27T07:40:52.597Z,449.00
2024-03-27T07:41:52.604Z,448.00
2024-03-27T07:42:52.606Z,451.00
2024-03-27T07:43:52.610Z,451.00
2024-03-27T07:44:52.602Z,450.00
2024-03-27T07:45:52.660Z,450.00
2024-03-27T07:46:52.712Z,450.00
2024-03-27T07:47:52.792Z,449.00
2024-03-27T07:48:52.869Z,448.00
2024-03-27T07:49:52.958Z,446.00
2024-03-27T07:50:53.012Z,445.00
2024-03-27T07:51:53.090Z,446.00
2024-03-27T07:52:55.446Z,447.00
2024-03-27T07:53:53.164Z,445.00
2024-03-27T07:54:53.165Z,442.00
2024-03-27T07:55:53.178Z,442.00
2024-03-27T07:56:53.186Z,442.00
2024-03-27T07:57:53.183Z,443.00
2024-03-27T07:58:53.163Z,443.00
2024-03-27T07:59:53.165Z,444.00
2024-03-27T08:00:53.176Z,445.00
2024-03-27T08:01:53.175Z,447.00
2024-03-27T08:02:53.158Z,444.00
2024-03-27T08:03:53.164Z,442.00
2024-03-27T08:04:53.177Z,444.00
2024-03-27T08:05:53.171Z,445.00
2024-03-27T08:06:55.696Z,445.00
2024-03-27T08:07:53.177Z,446.00
2024-03-27T08:08:53.186Z,445.00
2024-03-27T08:09:53.781Z,446.00
2024-03-27T08:10:53.188Z,444.00
2024-03-27T08:11:53.182Z,443.00
2024-03-27T08:12:53.178Z,444.00
2024-03-27T08:13:53.188Z,441.00
2024-03-27T08:14:53.173Z,440.00
2024-03-27T08:15:53.182Z,442.00
2024-03-27T08:16:53.194Z,442.00
2024-03-27T08:17:53.185Z,442.00
2024-03-27T08:18:53.207Z,444.00
2024-03-27T08:19:53.187Z,445.00
2024-03-27T08:20:53.173Z,446.00
2024-03-27T08:21:53.177Z,446.00
2024-03-27T08:22:53.181Z,446.00
2024-03-27T08:23:53.218Z,447.00
2024-03-27T08:24:53.228Z,446.00
2024-03-27T08:25:53.226Z,445.00
2024-03-27T08:26:53.226Z,448.00
2024-03-27T08:27:53.294Z,447.00
2024-03-27T08:28:53.245Z,444.00
2024-03-27T08:29:53.231Z,443.00
2024-03-27T08:30:53.244Z,443.00
2024-03-27T08:31:53.237Z,445.00
2024-03-27T08:32:53.243Z,449.00
2024-03-27T08:33:53.243Z,450.00
2024-03-27T08:34:53.253Z,452.00
2024-03-27T08:35:53.228Z,454.00
2024-03-27T08:36:53.238Z,456.00
2024-03-27T08:38:03.262Z,453.00
2024-03-27T08:38:54.243Z,451.00
2024-03-27T08:39:53.253Z,450.00
2024-03-27T08:40:53.255Z,448.00
2024-03-27T08:41:53.237Z,449.00
2024-03-27T08:42:53.239Z,450.00
2024-03-27T08:43:53.245Z,448.00
2024-03-27T08:44:53.261Z,449.00
2024-03-27T08:45:53.268Z,450.00
2024-03-27T08:46:53.260Z,449.00
2024-03-27T08:47:53.274Z,449.00
2024-03-27T08:48:53.282Z,450.00
2024-03-27T08:49:53.283Z,449.00
2024-03-27T08:50:53.305Z,450.00
2024-03-27T08:51:53.299Z,449.00
2024-03-27T08:52:53.284Z,451.00
2024-03-27T08:53:55.332Z,448.00
2024-03-27T08:54:53.290Z,449.00
2024-03-27T08:55:53.290Z,448.00
2024-03-27T08:56:53.298Z,448.00
2024-03-27T08:57:53.316Z,446.00
2024-03-27T08:58:53.303Z,445.00
2024-03-27T08:59:54.337Z,446.00
2024-03-27T09:00:53.291Z,444.00
2024-03-27T09:01:53.295Z,445.00
2024-03-27T09:02:53.302Z,445.00
2024-03-27T09:03:53.307Z,446.00
2024-03-27T09:04:53.289Z,447.00
2024-03-27T09:05:55.320Z,444.00
2024-03-27T09:06:53.333Z,444.00
2024-03-27T09:07:53.346Z,443.00
2024-03-27T09:08:53.389Z,445.00
2024-03-27T09:09:53.350Z,448.00
2024-03-27T09:10:53.377Z,450.00
2024-03-27T09:11:55.768Z,450.00
2024-03-27T09:12:53.341Z,448.00
2024-03-27T09:14:00.603Z,436.00
2024-03-27T09:15:00.643Z,441.00
2024-03-27T09:16:00.607Z,442.00
2024-03-27T09:17:00.610Z,445.00
2024-03-27T09:18:00.630Z,444.00
2024-03-27T09:19:00.616Z,443.00
2024-03-27T09:20:00.631Z,444.00
2024-03-27T09:21:00.629Z,444.00
2024-03-27T09:22:00.620Z,444.00
2024-03-27T09:23:00.629Z,441.00
2024-03-27T09:24:00.623Z,438.00
2024-03-27T09:25:00.654Z,437.00
2024-03-27T09:26:00.636Z,437.00
2024-03-27T09:27:00.622Z,440.00
2024-03-27T09:28:00.637Z,441.00
2024-03-27T09:29:00.615Z,445.00
2024-03-27T09:30:02.574Z,442.00
2024-03-27T09:31:00.630Z,444.00
2024-03-27T09:32:00.641Z,444.00
2024-03-27T09:33:00.657Z,443.00
2024-03-27T09:34:00.633Z,445.00
2024-03-27T09:35:00.655Z,444.00
2024-03-27T09:36:02.833Z,447.00
2024-03-27T09:37:00.636Z,448.00
2024-03-27T09:38:00.672Z,445.00
2024-03-27T09:39:00.634Z,443.00
2024-03-27T09:40:00.641Z,443.00
2024-03-27T09:41:00.665Z,445.00
2024-03-27T09:42:00.653Z,445.00
2024-03-27T09:43:00.655Z,447.00
2024-03-27T09:44:00.642Z,447.00
2024-03-27T09:45:00.651Z,445.00
2024-03-27T09:46:00.650Z,443.00
2024-03-27T09:47:00.658Z,443.00
2024-03-27T09:48:00.666Z,444.00
2024-03-27T09:49:00.663Z,443.00
2024-03-27T09:50:00.669Z,442.00
2024-03-27T09:51:00.667Z,444.00
2024-03-27T09:52:00.661Z,445.00
2024-03-27T09:53:00.673Z,443.00
2024-03-27T09:54:00.663Z,445.00
2024-03-27T09:55:00.665Z,446.00
2024-03-27T09:56:00.684Z,446.00
2024-03-27T09:57:00.670Z,444.00
2024-03-27T09:58:00.664Z,442.00
2024-03-27T09:59:00.686Z,442.00
2024-03-27T10:00:00.719Z,445.00
2024-03-27T10:01:00.696Z,444.00
2024-03-27T10:02:00.678Z,445.00
2024-03-27T10:03:00.684Z,447.00
2024-03-27T10:04:00.663Z,448.00
2024-03-27T10:05:00.714Z,447.00
2024-03-27T10:06:00.678Z,446.00
2024-03-27T10:07:00.678Z,445.00
2024-03-27T10:08:00.731Z,447.00
2024-03-27T10:09:00.702Z,444.00
2024-03-27T10:10:00.708Z,442.00
2024-03-27T10:11:00.685Z,443.00
2024-03-27T10:12:00.683Z,444.00
2024-03-27T10:13:00.690Z,442.00
2024-03-27T10:14:00.697Z,445.00
2024-03-27T10:15:00.720Z,444.00
2024-03-27T10:16:00.703Z,447.00
2024-03-27T10:17:00.691Z,444.00
2024-03-27T10:18:00.696Z,444.00
2024-03-27T10:19:00.698Z,440.00
2024-03-27T10:20:00.730Z,439.00
2024-03-27T10:21:00.714Z,438.00
2024-03-27T10:22:00.708Z,436.00
2024-03-27T10:23:00.712Z,433.00
2024-03-27T10:24:00.697Z,431.00
2024-03-27T10:25:00.692Z,433.00
2024-03-27T10:26:00.701Z,431.00
2024-03-27T10:27:00.706Z,434.00
2024-03-27T10:28:00.711Z,435.00
2024-03-27T10:29:00.720Z,438.00
2024-03-27T10:30:00.714Z,440.00
2024-03-27T10:31:00.726Z,440.00
2024-03-27T10:32:00.709Z,438.00
2024-03-27T10:33:00.737Z,439.00
2024-03-27T10:34:00.791Z,438.00
2024-03-27T10:35:06.420Z,442.00
2024-03-27T10:36:01.881Z,443.00
2024-03-27T10:37:00.900Z,444.00
2024-03-27T10:38:00.861Z,446.00
2024-03-27T10:39:00.854Z,448.00
2024-03-27T10:40:00.879Z,449.00
2024-03-27T10:41:00.912Z,447.00
2024-03-27T10:42:00.880Z,445.00
2024-03-27T10:43:00.875Z,443.00
2024-03-27T10:44:00.865Z,443.00
2024-03-27T10:45:00.914Z,442.00
2024-03-27T10:46:00.861Z,439.00
2024-03-27T10:47:00.871Z,441.00
2024-03-27T10:48:00.868Z,441.00
2024-03-27T10:49:00.869Z,437.00
2024-03-27T10:50:00.924Z,436.00
2024-03-27T10:51:00.983Z,437.00
2024-03-27T10:52:01.041Z,438.00
2024-03-27T10:53:01.195Z,438.00
2024-03-27T10:54:01.228Z,440.00
2024-03-27T10:55:01.230Z,440.00
2024-03-27T10:56:01.269Z,437.00
2024-03-27T10:57:01.319Z,440.00
2024-03-27T10:58:01.386Z,440.00
2024-03-27T10:59:01.424Z,440.00
2024-03-27T11:00:01.482Z,441.00
2024-03-27T11:01:01.546Z,438.00
2024-03-27T11:02:01.610Z,439.00
2024-03-27T11:03:01.660Z,439.00
2024-03-27T11:04:01.736Z,439.00
2024-03-27T11:05:01.778Z,440.00
2024-03-27T11:06:01.831Z,440.00
2024-03-27T11:07:01.882Z,440.00
2024-03-27T11:08:01.937Z,438.00
2024-03-27T11:09:01.996Z,439.00
2024-03-27T11:10:02.066Z,437.00
2024-03-27T11:11:02.098Z,439.00
2024-03-27T11:12:02.162Z,438.00
2024-03-27T11:13:02.205Z,440.00
2024-03-27T11:14:02.271Z,442.00
2024-03-27T11:15:02.315Z,442.00
2024-03-27T11:16:02.356Z,440.00
2024-03-27T11:17:02.404Z,442.00
2024-03-27T11:18:02.482Z,441.00
2024-03-27T11:19:02.518Z,443.00
2024-03-27T11:20:02.569Z,445.00
2024-03-27T11:21:02.604Z,442.00
2024-03-27T11:22:02.663Z,442.00
2024-03-27T11:23:02.713Z,442.00
2024-03-27T11:24:02.761Z,440.00
2024-03-27T11:25:02.818Z,439.00
2024-03-27T11:26:02.866Z,440.00
2024-03-27T11:27:02.907Z,441.00
2024-03-27T11:28:02.971Z,438.00
2024-03-27T11:29:03.019Z,438.00
2024-03-27T11:30:03.064Z,441.00
2024-03-27T11:31:03.129Z,442.00
2024-03-27T11:32:03.171Z,441.00
2024-03-27T11:33:03.218Z,440.00
2024-03-27T11:34:03.282Z,438.00
2024-03-27T11:35:03.360Z,439.00
2024-03-27T11:36:03.371Z,440.00
2024-03-27T11:37:03.426Z,441.00
2024-03-27T11:38:03.496Z,441.00
2024-03-27T11:39:03.503Z,443.00
2024-03-27T11:40:03.566Z,443.00
2024-03-27T11:41:03.620Z,443.00
2024-03-27T11:42:03.655Z,441.00
2024-03-27T11:43:03.722Z,441.00
2024-03-27T11:44:03.763Z,442.00
2024-03-27T11:45:03.812Z,441.00
2024-03-27T11:46:04.208Z,443.00
2024-03-27T11:47:03.900Z,444.00
2024-03-27T11:48:03.971Z,445.00
2024-03-27T11:49:03.999Z,446.00
2024-03-27T11:50:04.040Z,446.00
2024-03-27T11:51:14.156Z,446.00
2024-03-27T11:52:04.088Z,446.00
2024-03-27T11:53:04.094Z,444.00
2024-03-27T11:54:04.100Z,443.00
2024-03-27T11:55:04.078Z,443.00
2024-03-27T11:56:04.090Z,440.00
2024-03-27T11:57:04.091Z,441.00
2024-03-27T11:58:04.093Z,440.00
2024-03-27T11:59:04.092Z,441.00
2024-03-27T12:00:04.131Z,442.00
2024-03-27T12:01:05.225Z,441.00
2024-03-27T12:02:04.091Z,439.00
2024-03-27T12:03:04.099Z,439.00
2024-03-27T12:04:04.096Z,439.00
2024-03-27T12:05:04.105Z,437.00
2024-03-27T12:06:04.111Z,436.00
2024-03-27T12:07:04.116Z,437.00
2024-03-27T12:08:05.088Z,436.00
2024-03-27T12:09:04.109Z,438.00
2024-03-27T12:10:04.102Z,435.00
2024-03-27T12:11:04.109Z,435.00
2024-03-27T12:12:04.121Z,435.00
2024-03-27T12:13:04.128Z,438.00
2024-03-27T12:14:04.162Z,438.00
2024-03-27T12:15:04.203Z,438.00
2024-03-27T12:16:04.210Z,440.00
2024-03-27T12:17:04.228Z,441.00
2024-03-27T12:18:04.216Z,440.00
2024-03-27T12:19:04.207Z,439.00
2024-03-27T12:20:04.216Z,439.00
2024-03-27T12:21:04.215Z,438.00
2024-03-27T12:22:04.212Z,438.00
2024-03-27T12:23:04.226Z,437.00
2024-03-27T12:24:04.210Z,440.00
2024-03-27T12:25:04.780Z,439.00
2024-03-27T12:26:04.238Z,443.00
2024-03-27T12:27:04.234Z,443.00
2024-03-27T12:28:06.156Z,442.00
2024-03-27T12:29:04.237Z,440.00
2024-03-27T12:30:04.234Z,443.00